sensor_id;sensor_type;location;lat;lon;timestamp;pressure;altitude;pressure_sealevel;temperature;humidity
68320;BME280;55168;51.120;17.024;2023-02-11T00:00:00;101710;;;-0.4;100.0
68320;BME280;55168;51.120;17.024;2023-02-11T00:01:04;101720;;;-0.4;100.0
68320;BME280;55168;51.120;17.024;2023-02-11T00:02:00;101710;;;-0.4;100.0
68320;BME280;55168;51.120;17.024;2023-02-11T00:03:00;101710;;;-0.4;100.0
68320;BME280;55168;51.120;17.024;2023-02-11T00:04:00;101700;;;-0.4;100.0
68320;BME280;55168;51.120;17.024;2023-02-11T00:05:00;101700;;;-0.4;100.0
68320;BME280;55168;51.120;17.024;2023-02-11T00:06:00;101700;;;-0.4;100.0
68320;BME280;55168;51.120;17.024;2023-02-11T00:07:00;101700;;;-0.4;100.0
68320;BME280;55168;51.120;17.024;2023-02-11T00:08:00;101700;;;-0.4;100.0
68320;BME280;55168;51.120;17.024;2023-02-11T00:09:00;101690;;;-0.4;100.0
68320;BME280;55168;51.120;17.024;2023-02-11T00:10:00;101690;;;-0.3;100.0
68320;BME280;55168;51.120;17.024;2023-02-11T00:11:00;101690;;;-0.3;100.0
68320;BME280;55168;51.120;17.024;2023-02-11T00:12:00;101690;;;-0.3;100.0
68320;BME280;55168;51.120;17.024;2023-02-11T00:13:00;101690;;;-0.3;100.0
68320;BME280;55168;51.120;17.024;2023-02-11T00:14:01;101680;;;-0.3;100.0
68320;BME280;55168;51.120;17.024;2023-02-11T00:15:00;101690;;;-0.3;100.0
68320;BME280;55168;51.120;17.024;2023-02-11T00:16:04;101680;;;-0.3;100.0
68320;BME280;55168;51.120;17.024;2023-02-11T00:17:00;101690;;;-0.3;100.0
68320;BME280;55168;51.120;17.024;2023-02-11T00:18:00;101690;;;-0.3;100.0
68320;BME280;55168;51.120;17.024;2023-02-11T00:19:00;101690;;;-0.3;100.0
68320;BME280;55168;51.120;17.024;2023-02-11T00:20:00;101680;;;-0.3;100.0
68320;BME280;55168;51.120;17.024;2023-02-11T00:21:04;101680;;;-0.3;100.0
68320;BME280;55168;51.120;17.024;2023-02-11T00:22:00;101680;;;-0.3;100.0
68320;BME280;55168;51.120;17.024;2023-02-11T00:23:00;101680;;;-0.2;100.0
68320;BME280;55168;51.120;17.024;2023-02-11T00:24:00;101680;;;-0.2;100.0
68320;BME280;55168;51.120;17.024;2023-02-11T00:25:00;101680;;;-0.2;100.0
68320;BME280;55168;51.120;17.024;2023-02-11T00:26:00;101680;;;-0.2;100.0
68320;BME280;55168;51.120;17.024;2023-02-11T00:27:00;101680;;;-0.2;100.0
68320;BME280;55168;51.120;17.024;2023-02-11T00:28:00;101680;;;-0.2;100.0
68320;BME280;55168;51.120;17.024;2023-02-11T00:29:00;101680;;;-0.2;100.0
68320;BME280;55168;51.120;17.024;2023-02-11T00:30:00;101680;;;-0.2;100.0
68320;BME280;55168;51.120;17.024;2023-02-11T00:31:00;101680;;;-0.2;100.0
68320;BME280;55168;51.120;17.024;2023-02-11T00:32:00;101670;;;-0.2;100.0
68320;BME280;55168;51.120;17.024;2023-02-11T00:33:00;101670;;;-0.2;100.0
68320;BME280;55168;51.120;17.024;2023-02-11T00:34:00;101670;;;-0.2;100.0
68320;BME280;55168;51.120;17.024;2023-02-11T00:35:00;101670;;;-0.2;100.0
68320;BME280;55168;51.120;17.024;2023-02-11T00:36:04;101670;;;-0.2;100.0
68320;BME280;55168;51.120;17.024;2023-02-11T00:37:00;101670;;;-0.2;100.0
68320;BME280;55168;51.120;17.024;2023-02-11T00:38:00;101660;;;-0.3;100.0
68320;BME280;55168;51.120;17.024;2023-02-11T00:39:00;101660;;;-0.3;100.0
68320;BME280;55168;51.120;17.024;2023-02-11T00:40:00;101660;;;-0.3;100.0
68320;BME280;55168;51.120;17.024;2023-02-11T00:41:00;101660;;;-0.3;100.0
68320;BME280;55168;51.120;17.024;2023-02-11T00:42:00;101660;;;-0.3;100.0
68320;BME280;55168;51.120;17.024;2023-02-11T00:43:00;101660;;;-0.3;100.0
68320;BME280;55168;51.120;17.024;2023-02-11T00:44:00;101660;;;-0.3;100.0
68320;BME280;55168;51.120;17.024;2023-02-11T00:45:00;101660;;;-0.3;100.0
68320;BME280;55168;51.120;17.024;2023-02-11T00:46:00;101660;;;-0.3;100.0
68320;BME280;55168;51.120;17.024;2023-02-11T00:47:00;101660;;;-0.3;100.0
68320;BME280;55168;51.120;17.024;2023-02-11T00:48:00;101670;;;-0.3;100.0
68320;BME280;55168;51.120;17.024;2023-02-11T00:49:00;101670;;;-0.3;100.0
68320;BME280;55168;51.120;17.024;2023-02-11T00:50:00;101670;;;-0.3;100.0
68320;BME280;55168;51.120;17.024;2023-02-11T00:51:00;101670;;;-0.3;100.0
68320;BME280;55168;51.120;17.024;2023-02-11T00:52:00;101660;;;-0.3;100.0
68320;BME280;55168;51.120;17.024;2023-02-11T00:53:00;101660;;;-0.3;100.0
68320;BME280;55168;51.120;17.024;2023-02-11T00:54:00;101650;;;-0.3;100.0
68320;BME280;55168;51.120;17.024;2023-02-11T00:55:00;101650;;;-0.3;100.0
68320;BME280;55168;51.120;17.024;2023-02-11T00:56:00;101660;;;-0.3;100.0
68320;BME280;55168;51.120;17.024;2023-02-11T00:57:00;101650;;;-0.3;100.0
68320;BME280;55168;51.120;17.024;2023-02-11T00:58:00;101650;;;-0.3;100.0
68320;BME280;55168;51.120;17.024;2023-02-11T00:59:00;101650;;;-0.3;100.0
68320;BME280;55168;51.120;17.024;2023-02-11T01:00:00;101650;;;-0.4;100.0
68320;BME280;55168;51.120;17.024;2023-02-11T01:01:00;101650;;;-0.4;100.0
68320;BME280;55168;51.120;17.024;2023-02-11T01:02:00;101640;;;-0.4;100.0
68320;BME280;55168;51.120;17.024;2023-02-11T01:03:00;101640;;;-0.3;100.0
68320;BME280;55168;51.120;17.024;2023-02-11T01:04:00;101640;;;-0.3;100.0
68320;BME280;55168;51.120;17.024;2023-02-11T01:05:00;101640;;;-0.3;100.0
68320;BME280;55168;51.120;17.024;2023-02-11T01:06:00;101640;;;-0.4;100.0
68320;BME280;55168;51.120;17.024;2023-02-11T01:07:00;101640;;;-0.3;100.0
68320;BME280;55168;51.120;17.024;2023-02-11T01:08:00;101640;;;-0.4;100.0
68320;BME280;55168;51.120;17.024;2023-02-11T01:09:00;101640;;;-0.4;100.0
68320;BME280;55168;51.120;17.024;2023-02-11T01:10:00;101640;;;-0.4;100.0
68320;BME280;55168;51.120;17.024;2023-02-11T01:11:02;101640;;;-0.4;100.0
68320;BME280;55168;51.120;17.024;2023-02-11T01:12:00;101640;;;-0.4;100.0
68320;BME280;55168;51.120;17.024;2023-02-11T01:13:00;101640;;;-0.4;100.0
68320;BME280;55168;51.120;17.024;2023-02-11T01:14:00;101640;;;-0.4;100.0
68320;BME280;55168;51.120;17.024;2023-02-11T01:15:00;101640;;;-0.4;100.0
68320;BME280;55168;51.120;17.024;2023-02-11T01:16:00;101630;;;-0.4;100.0
68320;BME280;55168;51.120;17.024;2023-02-11T01:17:00;101630;;;-0.4;100.0
68320;BME280;55168;51.120;17.024;2023-02-11T01:18:00;101630;;;-0.5;100.0
68320;BME280;55168;51.120;17.024;2023-02-11T01:19:00;101630;;;-0.5;100.0
68320;BME280;55168;51.120;17.024;2023-02-11T01:20:08;101630;;;-0.5;100.0
68320;BME280;55168;51.120;17.024;2023-02-11T01:21:00;101620;;;-0.6;100.0
68320;BME280;55168;51.120;17.024;2023-02-11T01:22:00;101620;;;-0.6;100.0
68320;BME280;55168;51.120;17.024;2023-02-11T01:23:00;101620;;;-0.6;100.0
68320;BME280;55168;51.120;17.024;2023-02-11T01:24:00;101610;;;-0.6;100.0
68320;BME280;55168;51.120;17.024;2023-02-11T01:25:00;101610;;;-0.6;100.0
68320;BME280;55168;51.120;17.024;2023-02-11T01:26:00;101610;;;-0.7;100.0
68320;BME280;55168;51.120;17.024;2023-02-11T01:27:00;101610;;;-0.7;100.0
68320;BME280;55168;51.120;17.024;2023-02-11T01:28:00;101600;;;-0.7;100.0
68320;BME280;55168;51.120;17.024;2023-02-11T01:29:00;101600;;;-0.8;100.0
68320;BME280;55168;51.120;17.024;2023-02-11T01:30:00;101600;;;-0.8;100.0
68320;BME280;55168;51.120;17.024;2023-02-11T01:31:00;101600;;;-0.8;100.0
68320;BME280;55168;51.120;17.024;2023-02-11T01:32:00;101600;;;-0.8;100.0
68320;BME280;55168;51.120;17.024;2023-02-11T01:33:00;101600;;;-0.8;100.0
68320;BME280;55168;51.120;17.024;2023-02-11T01:34:00;101600;;;-0.8;100.0
68320;BME280;55168;51.120;17.024;2023-02-11T01:35:00;101600;;;-0.7;100.0
68320;BME280;55168;51.120;17.024;2023-02-11T01:36:01;101600;;;-0.7;100.0
68320;BME280;55168;51.120;17.024;2023-02-11T01:37:00;101590;;;-0.7;100.0
68320;BME280;55168;51.120;17.024;2023-02-11T01:38:00;101590;;;-0.7;100.0
68320;BME280;55168;51.120;17.024;2023-02-11T01:39:00;101590;;;-0.6;100.0
68320;BME280;55168;51.120;17.024;2023-02-11T01:40:00;101590;;;-0.6;100.0
68320;BME280;55168;51.120;17.024;2023-02-11T01:41:01;101590;;;-0.6;100.0
68320;BME280;55168;51.120;17.024;2023-02-11T01:42:00;101580;;;-0.6;100.0
68320;BME280;55168;51.120;17.024;2023-02-11T01:43:00;101580;;;-0.6;100.0
68320;BME280;55168;51.120;17.024;2023-02-11T01:45:00;101570;;;-0.5;100.0
68320;BME280;55168;51.120;17.024;2023-02-11T01:46:05;101570;;;-0.5;100.0
68320;BME280;55168;51.120;17.024;2023-02-11T01:47:00;101570;;;-0.4;100.0
68320;BME280;55168;51.120;17.024;2023-02-11T01:48:00;101570;;;-0.4;100.0
68320;BME280;55168;51.120;17.024;2023-02-11T01:49:01;101570;;;-0.4;100.0
68320;BME280;55168;51.120;17.024;2023-02-11T01:50:00;101560;;;-0.4;100.0
68320;BME280;55168;51.120;17.024;2023-02-11T01:51:02;101560;;;-0.4;100.0
68320;BME280;55168;51.120;17.024;2023-02-11T01:53:00;101550;;;-0.3;100.0
68320;BME280;55168;51.120;17.024;2023-02-11T01:54:00;101550;;;-0.3;100.0
68320;BME280;55168;51.120;17.024;2023-02-11T01:55:02;101550;;;-0.2;100.0
68320;BME280;55168;51.120;17.024;2023-02-11T01:56:00;101540;;;-0.2;100.0
68320;BME280;55168;51.120;17.024;2023-02-11T01:57:00;101550;;;-0.2;100.0
68320;BME280;55168;51.120;17.024;2023-02-11T01:58:01;101540;;;-0.1;100.0
68320;BME280;55168;51.120;17.024;2023-02-11T01:59:02;101540;;;-0.1;100.0
68320;BME280;55168;51.120;17.024;2023-02-11T02:00:03;101540;;;-0.1;100.0
68320;BME280;55168;51.120;17.024;2023-02-11T02:01:00;101540;;;-0.1;100.0
68320;BME280;55168;51.120;17.024;2023-02-11T02:02:01;101540;;;-0.1;100.0
68320;BME280;55168;51.120;17.024;2023-02-11T02:04:00;101540;;;-0.1;100.0
68320;BME280;55168;51.120;17.024;2023-02-11T02:05:03;101540;;;-0.1;100.0
68320;BME280;55168;51.120;17.024;2023-02-11T02:06:02;101540;;;-0.0;100.0
68320;BME280;55168;51.120;17.024;2023-02-11T02:07:02;101530;;;-0.0;100.0
68320;BME280;55168;51.120;17.024;2023-02-11T02:09:02;101530;;;0.0;100.0
68320;BME280;55168;51.120;17.024;2023-02-11T02:10:02;101530;;;0.0;100.0
68320;BME280;55168;51.120;17.024;2023-02-11T02:11:00;101530;;;0.1;100.0
68320;BME280;55168;51.120;17.024;2023-02-11T02:12:00;101530;;;0.0;100.0
68320;BME280;55168;51.120;17.024;2023-02-11T02:13:00;101530;;;0.0;100.0
68320;BME280;55168;51.120;17.024;2023-02-11T02:14:00;101520;;;0.1;100.0
68320;BME280;55168;51.120;17.024;2023-02-11T02:15:10;101530;;;0.1;100.0
68320;BME280;55168;51.120;17.024;2023-02-11T02:16:01;101530;;;0.1;100.0
68320;BME280;55168;51.120;17.024;2023-02-11T02:17:00;101520;;;0.1;100.0
68320;BME280;55168;51.120;17.024;2023-02-11T02:18:01;101520;;;0.1;100.0
68320;BME280;55168;51.120;17.024;2023-02-11T02:20:21;101510;;;0.1;100.0
68320;BME280;55168;51.120;17.024;2023-02-11T02:23:18;101500;;;0.2;100.0
68320;BME280;55168;51.120;17.024;2023-02-11T02:28:06;101490;;;0.2;100.0
68320;BME280;55168;51.120;17.024;2023-02-11T02:34:01;101490;;;0.3;100.0
68320;BME280;55168;51.120;17.024;2023-02-11T02:36:03;101480;;;0.2;100.0
68320;BME280;55168;51.120;17.024;2023-02-11T02:37:03;101480;;;0.2;100.0
68320;BME280;55168;51.120;17.024;2023-02-11T02:38:02;101480;;;0.2;100.0
68320;BME280;55168;51.120;17.024;2023-02-11T02:39:03;101480;;;0.2;100.0
68320;BME280;55168;51.120;17.024;2023-02-11T02:40:00;101480;;;0.2;100.0
68320;BME280;55168;51.120;17.024;2023-02-11T02:41:06;101490;;;0.2;100.0
68320;BME280;55168;51.120;17.024;2023-02-11T02:42:00;101480;;;0.2;100.0
68320;BME280;55168;51.120;17.024;2023-02-11T02:43:00;101480;;;0.2;100.0
68320;BME280;55168;51.120;17.024;2023-02-11T02:44:00;101480;;;0.3;100.0
68320;BME280;55168;51.120;17.024;2023-02-11T02:45:00;101470;;;0.3;100.0
68320;BME280;55168;51.120;17.024;2023-02-11T02:47:00;101480;;;0.3;100.0
68320;BME280;55168;51.120;17.024;2023-02-11T02:48:00;101470;;;0.3;100.0
68320;BME280;55168;51.120;17.024;2023-02-11T02:49:00;101470;;;0.3;100.0
68320;BME280;55168;51.120;17.024;2023-02-11T02:50:00;101470;;;0.3;100.0
68320;BME280;55168;51.120;17.024;2023-02-11T02:51:05;101470;;;0.3;100.0
68320;BME280;55168;51.120;17.024;2023-02-11T02:53:10;101470;;;0.3;100.0
68320;BME280;55168;51.120;17.024;2023-02-11T02:54:15;101470;;;0.3;100.0
68320;BME280;55168;51.120;17.024;2023-02-11T02:56:18;101460;;;0.4;100.0
68320;BME280;55168;51.120;17.024;2023-02-11T02:59:07;101450;;;0.3;100.0
68320;BME280;55168;51.120;17.024;2023-02-11T03:00:03;101450;;;0.3;100.0
68320;BME280;55168;51.120;17.024;2023-02-11T03:01:11;101450;;;0.4;100.0
68320;BME280;55168;51.120;17.024;2023-02-11T03:05:03;101450;;;0.4;100.0
68320;BME280;55168;51.120;17.024;2023-02-11T03:06:02;101440;;;0.3;100.0
68320;BME280;55168;51.120;17.024;2023-02-11T03:07:02;101450;;;0.3;100.0
68320;BME280;55168;51.120;17.024;2023-02-11T03:08:09;101440;;;0.3;100.0
68320;BME280;55168;51.120;17.024;2023-02-11T03:09:03;101440;;;0.3;100.0
68320;BME280;55168;51.120;17.024;2023-02-11T03:10:02;101440;;;0.3;100.0
68320;BME280;55168;51.120;17.024;2023-02-11T03:11:00;101430;;;0.3;100.0
68320;BME280;55168;51.120;17.024;2023-02-11T03:12:00;101430;;;0.2;100.0
68320;BME280;55168;51.120;17.024;2023-02-11T03:13:00;101430;;;0.2;100.0
68320;BME280;55168;51.120;17.024;2023-02-11T03:14:00;101430;;;0.2;100.0
68320;BME280;55168;51.120;17.024;2023-02-11T03:15:00;101430;;;0.3;100.0
68320;BME280;55168;51.120;17.024;2023-02-11T03:16:03;101430;;;0.3;100.0
68320;BME280;55168;51.120;17.024;2023-02-11T03:17:00;101440;;;0.2;100.0
68320;BME280;55168;51.120;17.024;2023-02-11T03:18:00;101440;;;0.2;100.0
68320;BME280;55168;51.120;17.024;2023-02-11T03:19:02;101440;;;0.2;100.0
68320;BME280;55168;51.120;17.024;2023-02-11T03:20:00;101440;;;0.2;100.0
68320;BME280;55168;51.120;17.024;2023-02-11T03:21:00;101440;;;0.2;100.0
68320;BME280;55168;51.120;17.024;2023-02-11T03:22:00;101430;;;0.2;100.0
68320;BME280;55168;51.120;17.024;2023-02-11T03:23:04;101430;;;0.2;100.0
68320;BME280;55168;51.120;17.024;2023-02-11T03:24:01;101430;;;0.2;100.0
68320;BME280;55168;51.120;17.024;2023-02-11T03:25:00;101430;;;0.2;100.0
68320;BME280;55168;51.120;17.024;2023-02-11T03:26:08;101440;;;0.2;100.0
68320;BME280;55168;51.120;17.024;2023-02-11T03:27:00;101440;;;0.2;100.0
68320;BME280;55168;51.120;17.024;2023-02-11T03:28:04;101440;;;0.2;100.0
68320;BME280;55168;51.120;17.024;2023-02-11T03:30:00;101440;;;0.1;100.0
68320;BME280;55168;51.120;17.024;2023-02-11T03:33:02;101440;;;0.2;100.0
68320;BME280;55168;51.120;17.024;2023-02-11T03:34:03;101440;;;0.2;100.0
68320;BME280;55168;51.120;17.024;2023-02-11T03:35:17;101440;;;0.2;100.0
68320;BME280;55168;51.120;17.024;2023-02-11T03:36:01;101440;;;0.2;100.0
68320;BME280;55168;51.120;17.024;2023-02-11T03:37:01;101440;;;0.2;100.0
68320;BME280;55168;51.120;17.024;2023-02-11T03:38:04;101440;;;0.2;100.0
68320;BME280;55168;51.120;17.024;2023-02-11T03:39:00;101450;;;0.3;100.0
68320;BME280;55168;51.120;17.024;2023-02-11T03:40:01;101450;;;0.3;100.0
68320;BME280;55168;51.120;17.024;2023-02-11T03:41:00;101450;;;0.3;100.0
68320;BME280;55168;51.120;17.024;2023-02-11T03:42:00;101450;;;0.2;100.0
68320;BME280;55168;51.120;17.024;2023-02-11T03:43:02;101450;;;0.3;100.0
68320;BME280;55168;51.120;17.024;2023-02-11T03:44:00;101440;;;0.3;100.0
68320;BME280;55168;51.120;17.024;2023-02-11T03:45:08;101440;;;0.3;100.0
68320;BME280;55168;51.120;17.024;2023-02-11T03:46:00;101440;;;0.3;100.0
68320;BME280;55168;51.120;17.024;2023-02-11T03:47:00;101440;;;0.3;100.0
68320;BME280;55168;51.120;17.024;2023-02-11T03:48:01;101440;;;0.3;100.0
68320;BME280;55168;51.120;17.024;2023-02-11T03:49:02;101440;;;0.4;100.0
68320;BME280;55168;51.120;17.024;2023-02-11T03:50:00;101440;;;0.3;100.0
68320;BME280;55168;51.120;17.024;2023-02-11T03:51:00;101440;;;0.4;100.0
68320;BME280;55168;51.120;17.024;2023-02-11T03:52:00;101440;;;0.4;100.0
68320;BME280;55168;51.120;17.024;2023-02-11T03:53:00;101440;;;0.4;100.0
68320;BME280;55168;51.120;17.024;2023-02-11T03:54:01;101440;;;0.4;100.0
68320;BME280;55168;51.120;17.024;2023-02-11T03:55:00;101440;;;0.4;100.0
68320;BME280;55168;51.120;17.024;2023-02-11T03:56:00;101440;;;0.4;100.0
68320;BME280;55168;51.120;17.024;2023-02-11T03:57:00;101430;;;0.4;100.0
68320;BME280;55168;51.120;17.024;2023-02-11T03:58:00;101430;;;0.4;100.0
68320;BME280;55168;51.120;17.024;2023-02-11T03:59:00;101430;;;0.4;100.0
68320;BME280;55168;51.120;17.024;2023-02-11T04:00:00;101430;;;0.5;100.0
68320;BME280;55168;51.120;17.024;2023-02-11T04:01:00;101430;;;0.5;100.0
68320;BME280;55168;51.120;17.024;2023-02-11T04:02:00;101430;;;0.5;100.0
68320;BME280;55168;51.120;17.024;2023-02-11T04:03:00;101420;;;0.5;100.0
68320;BME280;55168;51.120;17.024;2023-02-11T04:04:00;101420;;;0.5;100.0
68320;BME280;55168;51.120;17.024;2023-02-11T04:05:00;101420;;;0.5;100.0
68320;BME280;55168;51.120;17.024;2023-02-11T04:06:00;101420;;;0.5;100.0
68320;BME280;55168;51.120;17.024;2023-02-11T04:07:00;101410;;;0.4;100.0
68320;BME280;55168;51.120;17.024;2023-02-11T04:08:00;101410;;;0.4;100.0
68320;BME280;55168;51.120;17.024;2023-02-11T04:09:00;101410;;;0.4;100.0
68320;BME280;55168;51.120;17.024;2023-02-11T04:10:00;101410;;;0.5;100.0
68320;BME280;55168;51.120;17.024;2023-02-11T04:11:00;101410;;;0.5;100.0
68320;BME280;55168;51.120;17.024;2023-02-11T04:12:00;101400;;;0.5;100.0
68320;BME280;55168;51.120;17.024;2023-02-11T04:13:00;101400;;;0.5;100.0
68320;BME280;55168;51.120;17.024;2023-02-11T04:14:00;101390;;;0.5;100.0
68320;BME280;55168;51.120;17.024;2023-02-11T04:15:00;101400;;;0.4;100.0
68320;BME280;55168;51.120;17.024;2023-02-11T04:16:00;101400;;;0.4;100.0
68320;BME280;55168;51.120;17.024;2023-02-11T04:17:00;101400;;;0.4;100.0
68320;BME280;55168;51.120;17.024;2023-02-11T04:18:00;101400;;;0.4;100.0
68320;BME280;55168;51.120;17.024;2023-02-11T04:19:00;101390;;;0.4;100.0
68320;BME280;55168;51.120;17.024;2023-02-11T04:20:00;101390;;;0.5;100.0
68320;BME280;55168;51.120;17.024;2023-02-11T04:21:00;101390;;;0.5;100.0
68320;BME280;55168;51.120;17.024;2023-02-11T04:22:00;101380;;;0.4;100.0
68320;BME280;55168;51.120;17.024;2023-02-11T04:23:00;101390;;;0.4;100.0
68320;BME280;55168;51.120;17.024;2023-02-11T04:24:00;101380;;;0.4;100.0
68320;BME280;55168;51.120;17.024;2023-02-11T04:25:00;101380;;;0.4;100.0
68320;BME280;55168;51.120;17.024;2023-02-11T04:26:00;101380;;;0.4;100.0
68320;BME280;55168;51.120;17.024;2023-02-11T04:27:00;101380;;;0.4;100.0
68320;BME280;55168;51.120;17.024;2023-02-11T04:28:00;101380;;;0.3;100.0
68320;BME280;55168;51.120;17.024;2023-02-11T04:29:00;101380;;;0.3;100.0
68320;BME280;55168;51.120;17.024;2023-02-11T04:30:00;101380;;;0.3;100.0
68320;BME280;55168;51.120;17.024;2023-02-11T04:31:00;101370;;;0.3;100.0
68320;BME280;55168;51.120;17.024;2023-02-11T04:32:00;101370;;;0.3;100.0
68320;BME280;55168;51.120;17.024;2023-02-11T04:33:00;101370;;;0.3;100.0
68320;BME280;55168;51.120;17.024;2023-02-11T04:34:00;101360;;;0.3;100.0
68320;BME280;55168;51.120;17.024;2023-02-11T04:35:00;101360;;;0.3;100.0
68320;BME280;55168;51.120;17.024;2023-02-11T04:36:00;101360;;;0.3;100.0
68320;BME280;55168;51.120;17.024;2023-02-11T04:37:00;101350;;;0.3;100.0
68320;BME280;55168;51.120;17.024;2023-02-11T04:38:00;101350;;;0.3;100.0
68320;BME280;55168;51.120;17.024;2023-02-11T04:39:00;101350;;;0.3;100.0
68320;BME280;55168;51.120;17.024;2023-02-11T04:40:00;101350;;;0.3;100.0
68320;BME280;55168;51.120;17.024;2023-02-11T04:41:00;101350;;;0.3;100.0
68320;BME280;55168;51.120;17.024;2023-02-11T04:42:00;101350;;;0.3;100.0
68320;BME280;55168;51.120;17.024;2023-02-11T04:43:00;101350;;;0.3;100.0
68320;BME280;55168;51.120;17.024;2023-02-11T04:44:00;101360;;;0.3;100.0
68320;BME280;55168;51.120;17.024;2023-02-11T04:45:00;101360;;;0.3;100.0
68320;BME280;55168;51.120;17.024;2023-02-11T04:46:00;101360;;;0.3;100.0
68320;BME280;55168;51.120;17.024;2023-02-11T04:47:00;101370;;;0.3;100.0
68320;BME280;55168;51.120;17.024;2023-02-11T04:48:00;101360;;;0.3;100.0
68320;BME280;55168;51.120;17.024;2023-02-11T04:49:00;101370;;;0.2;100.0
68320;BME280;55168;51.120;17.024;2023-02-11T04:50:00;101360;;;0.2;100.0
68320;BME280;55168;51.120;17.024;2023-02-11T04:51:00;101360;;;0.2;100.0
68320;BME280;55168;51.120;17.024;2023-02-11T04:52:00;101360;;;0.2;100.0
68320;BME280;55168;51.120;17.024;2023-02-11T04:53:00;101360;;;0.3;100.0
68320;BME280;55168;51.120;17.024;2023-02-11T04:54:00;101370;;;0.3;100.0
68320;BME280;55168;51.120;17.024;2023-02-11T04:55:00;101370;;;0.3;100.0
68320;BME280;55168;51.120;17.024;2023-02-11T04:56:00;101370;;;0.3;100.0
68320;BME280;55168;51.120;17.024;2023-02-11T04:57:00;101370;;;0.3;100.0
68320;BME280;55168;51.120;17.024;2023-02-11T04:58:00;101370;;;0.3;100.0
68320;BME280;55168;51.120;17.024;2023-02-11T04:59:00;101370;;;0.3;100.0
68320;BME280;55168;51.120;17.024;2023-02-11T05:00:00;101370;;;0.3;100.0
68320;BME280;55168;51.120;17.024;2023-02-11T05:01:04;101360;;;0.3;100.0
68320;BME280;55168;51.120;17.024;2023-02-11T05:02:00;101360;;;0.3;100.0
68320;BME280;55168;51.120;17.024;2023-02-11T05:03:00;101360;;;0.3;100.0
68320;BME280;55168;51.120;17.024;2023-02-11T05:04:00;101350;;;0.3;100.0
68320;BME280;55168;51.120;17.024;2023-02-11T05:05:00;101350;;;0.3;100.0
68320;BME280;55168;51.120;17.024;2023-02-11T05:06:00;101350;;;0.3;100.0
68320;BME280;55168;51.120;17.024;2023-02-11T05:07:00;101350;;;0.3;100.0
68320;BME280;55168;51.120;17.024;2023-02-11T05:08:00;101350;;;0.3;100.0
68320;BME280;55168;51.120;17.024;2023-02-11T05:09:00;101350;;;0.3;100.0
68320;BME280;55168;51.120;17.024;2023-02-11T05:10:00;101340;;;0.3;100.0
68320;BME280;55168;51.120;17.024;2023-02-11T05:11:00;101340;;;0.3;100.0
68320;BME280;55168;51.120;17.024;2023-02-11T05:12:00;101340;;;0.3;100.0
68320;BME280;55168;51.120;17.024;2023-02-11T05:13:00;101340;;;0.3;100.0
68320;BME280;55168;51.120;17.024;2023-02-11T05:14:00;101340;;;0.3;100.0
68320;BME280;55168;51.120;17.024;2023-02-11T05:15:00;101330;;;0.3;100.0
68320;BME280;55168;51.120;17.024;2023-02-11T05:16:00;101330;;;0.3;100.0
68320;BME280;55168;51.120;17.024;2023-02-11T05:17:00;101320;;;0.4;100.0
68320;BME280;55168;51.120;17.024;2023-02-11T05:18:00;101320;;;0.4;100.0
68320;BME280;55168;51.120;17.024;2023-02-11T05:19:00;101310;;;0.4;100.0
68320;BME280;55168;51.120;17.024;2023-02-11T05:20:00;101310;;;0.3;100.0
68320;BME280;55168;51.120;17.024;2023-02-11T05:21:04;101310;;;0.3;100.0
68320;BME280;55168;51.120;17.024;2023-02-11T05:22:00;101310;;;0.3;100.0
68320;BME280;55168;51.120;17.024;2023-02-11T05:23:00;101310;;;0.3;100.0
68320;BME280;55168;51.120;17.024;2023-02-11T05:24:00;101310;;;0.3;100.0
68320;BME280;55168;51.120;17.024;2023-02-11T05:25:00;101310;;;0.3;100.0
68320;BME280;55168;51.120;17.024;2023-02-11T05:26:00;101310;;;0.3;100.0
68320;BME280;55168;51.120;17.024;2023-02-11T05:27:00;101310;;;0.3;100.0
68320;BME280;55168;51.120;17.024;2023-02-11T05:28:00;101310;;;0.4;100.0
68320;BME280;55168;51.120;17.024;2023-02-11T05:29:00;101310;;;0.4;100.0
68320;BME280;55168;51.120;17.024;2023-02-11T05:30:00;101310;;;0.4;100.0
68320;BME280;55168;51.120;17.024;2023-02-11T05:31:00;101310;;;0.4;100.0
68320;BME280;55168;51.120;17.024;2023-02-11T05:32:00;101310;;;0.4;100.0
68320;BME280;55168;51.120;17.024;2023-02-11T05:33:00;101310;;;0.4;100.0
68320;BME280;55168;51.120;17.024;2023-02-11T05:34:00;101300;;;0.4;100.0
68320;BME280;55168;51.120;17.024;2023-02-11T05:35:00;101310;;;0.4;100.0
68320;BME280;55168;51.120;17.024;2023-02-11T05:36:01;101300;;;0.4;100.0
68320;BME280;55168;51.120;17.024;2023-02-11T05:37:00;101300;;;0.4;100.0
68320;BME280;55168;51.120;17.024;2023-02-11T05:38:00;101300;;;0.4;100.0
68320;BME280;55168;51.120;17.024;2023-02-11T05:39:00;101300;;;0.4;100.0
68320;BME280;55168;51.120;17.024;2023-02-11T05:40:00;101300;;;0.4;100.0
68320;BME280;55168;51.120;17.024;2023-02-11T05:41:00;101300;;;0.5;100.0
68320;BME280;55168;51.120;17.024;2023-02-11T05:42:00;101300;;;0.5;100.0
68320;BME280;55168;51.120;17.024;2023-02-11T05:43:00;101310;;;0.5;100.0
68320;BME280;55168;51.120;17.024;2023-02-11T05:44:00;101310;;;0.5;100.0
68320;BME280;55168;51.120;17.024;2023-02-11T05:45:00;101310;;;0.5;100.0
68320;BME280;55168;51.120;17.024;2023-02-11T05:46:00;101310;;;0.5;100.0
68320;BME280;55168;51.120;17.024;2023-02-11T05:47:00;101310;;;0.5;100.0
68320;BME280;55168;51.120;17.024;2023-02-11T05:48:00;101320;;;0.5;100.0
68320;BME280;55168;51.120;17.024;2023-02-11T05:49:00;101310;;;0.5;100.0
68320;BME280;55168;51.120;17.024;2023-02-11T05:50:00;101310;;;0.5;100.0
68320;BME280;55168;51.120;17.024;2023-02-11T05:51:00;101320;;;0.5;100.0
68320;BME280;55168;51.120;17.024;2023-02-11T05:52:00;101310;;;0.5;100.0
68320;BME280;55168;51.120;17.024;2023-02-11T05:53:00;101310;;;0.5;100.0
68320;BME280;55168;51.120;17.024;2023-02-11T05:54:00;101310;;;0.5;100.0
68320;BME280;55168;51.120;17.024;2023-02-11T05:55:00;101310;;;0.5;100.0
68320;BME280;55168;51.120;17.024;2023-02-11T05:56:00;101310;;;0.5;100.0
68320;BME280;55168;51.120;17.024;2023-02-11T05:57:00;101310;;;0.5;100.0